sensor_id;sensor_type;location;lat;lon;timestamp;temperature;humidity
47961;DHT22;33721;48.852;9.936;2022-12-29T00:01:17;8.70;99.90
47961;DHT22;33721;48.852;9.936;2022-12-29T00:03:46;8.70;99.90
47961;DHT22;33721;48.852;9.936;2022-12-29T00:06:11;8.60;99.90
47961;DHT22;33721;48.852;9.936;2022-12-29T00:08:37;8.60;99.90
47961;DHT22;33721;48.852;9.936;2022-12-29T00:11:11;8.50;99.90
47961;DHT22;33721;48.852;9.936;2022-12-29T00:13:37;8.40;99.90
47961;DHT22;33721;48.852;9.936;2022-12-29T00:16:21;8.30;99.90
47961;DHT22;33721;48.852;9.936;2022-12-29T00:18:47;8.20;99.90
47961;DHT22;33721;48.852;9.936;2022-12-29T00:21:18;8.10;99.90
47961;DHT22;33721;48.852;9.936;2022-12-29T00:24:16;8.10;99.90
47961;DHT22;33721;48.852;9.936;2022-12-29T00:29:47;7.90;99.90
47961;DHT22;33721;48.852;9.936;2022-12-29T00:32:32;7.80;99.90
47961;DHT22;33721;48.852;9.936;2022-12-29T00:35:39;7.70;99.90
47961;DHT22;33721;48.852;9.936;2022-12-29T00:38:10;7.60;99.90
47961;DHT22;33721;48.852;9.936;2022-12-29T00:40:55;7.50;99.90
47961;DHT22;33721;48.852;9.936;2022-12-29T00:43:39;7.40;99.90
47961;DHT22;33721;48.852;9.936;2022-12-29T00:46:23;7.30;99.90
47961;DHT22;33721;48.852;9.936;2022-12-29T00:48:49;7.20;99.90
47961;DHT22;33721;48.852;9.936;2022-12-29T00:51:33;7.10;99.90
47961;DHT22;33721;48.852;9.936;2022-12-29T00:53:59;7.10;99.90
47961;DHT22;33721;48.852;9.936;2022-12-29T00:56:24;7.10;99.90
47961;DHT22;33721;48.852;9.936;2022-12-29T00:58:50;7.10;99.90
47961;DHT22;33721;48.852;9.936;2022-12-29T01:01:16;7.20;99.90
47961;DHT22;33721;48.852;9.936;2022-12-29T01:03:42;7.20;99.90
47961;DHT22;33721;48.852;9.936;2022-12-29T01:06:09;7.20;99.90
47961;DHT22;33721;48.852;9.936;2022-12-29T01:08:35;7.30;99.90
47961;DHT22;33721;48.852;9.936;2022-12-29T01:11:07;7.50;99.90
47961;DHT22;33721;48.852;9.936;2022-12-29T01:13:33;7.60;99.90
47961;DHT22;33721;48.852;9.936;2022-12-29T01:15:59;7.80;99.90
47961;DHT22;33721;48.852;9.936;2022-12-29T01:18:25;7.80;99.90
47961;DHT22;33721;48.852;9.936;2022-12-29T01:21:01;7.80;99.90
47961;DHT22;33721;48.852;9.936;2022-12-29T01:23:28;7.70;99.90
47961;DHT22;33721;48.852;9.936;2022-12-29T01:25:54;7.70;99.90
47961;DHT22;33721;48.852;9.936;2022-12-29T01:28:19;7.70;99.90
47961;DHT22;33721;48.852;9.936;2022-12-29T01:30:45;7.70;99.90
47961;DHT22;33721;48.852;9.936;2022-12-29T01:33:10;7.80;99.90
47961;DHT22;33721;48.852;9.936;2022-12-29T01:35:36;7.90;99.90
47961;DHT22;33721;48.852;9.936;2022-12-29T01:38:02;7.90;99.90
47961;DHT22;33721;48.852;9.936;2022-12-29T01:40:27;8.00;99.90
47961;DHT22;33721;48.852;9.936;2022-12-29T01:42:53;8.00;99.90
47961;DHT22;33721;48.852;9.936;2022-12-29T01:45:19;8.20;99.90
47961;DHT22;33721;48.852;9.936;2022-12-29T01:47:55;8.50;99.90
47961;DHT22;33721;48.852;9.936;2022-12-29T01:50:30;8.70;99.90
47961;DHT22;33721;48.852;9.936;2022-12-29T01:53:01;8.70;99.90
47961;DHT22;33721;48.852;9.936;2022-12-29T01:55:32;8.80;99.90
47961;DHT22;33721;48.852;9.936;2022-12-29T01:58:00;8.80;99.90
47961;DHT22;33721;48.852;9.936;2022-12-29T02:00:27;8.80;99.90
47961;DHT22;33721;48.852;9.936;2022-12-29T02:02:53;8.80;99.90
47961;DHT22;33721;48.852;9.936;2022-12-29T02:06:11;8.80;99.90
47961;DHT22;33721;48.852;9.936;2022-12-29T02:08:16;8.90;99.90
47961;DHT22;33721;48.852;9.936;2022-12-29T02:10:43;9.00;99.90
47961;DHT22;33721;48.852;9.936;2022-12-29T02:13:09;8.90;99.90
47961;DHT22;33721;48.852;9.936;2022-12-29T02:32:28;8.80;99.90
47961;DHT22;33721;48.852;9.936;2022-12-29T02:35:27;8.80;99.90
47961;DHT22;33721;48.852;9.936;2022-12-29T02:45:45;8.80;99.90
47961;DHT22;33721;48.852;9.936;2022-12-29T02:48:31;8.80;99.90
47961;DHT22;33721;48.852;9.936;2022-12-29T02:53:43;8.90;99.90
47961;DHT22;33721;48.852;9.936;2022-12-29T02:56:28;8.80;99.90
47961;DHT22;33721;48.852;9.936;2022-12-29T02:58:54;8.70;99.90
47961;DHT22;33721;48.852;9.936;2022-12-29T03:04:37;8.60;99.90
47961;DHT22;33721;48.852;9.936;2022-12-29T03:07:17;8.60;99.90
47961;DHT22;33721;48.852;9.936;2022-12-29T03:10:08;8.60;99.90
47961;DHT22;33721;48.852;9.936;2022-12-29T03:15:53;8.80;99.90
47961;DHT22;33721;48.852;9.936;2022-12-29T03:18:46;8.70;99.90
47961;DHT22;33721;48.852;9.936;2022-12-29T03:23:44;8.90;99.90
47961;DHT22;33721;48.852;9.936;2022-12-29T03:26:14;8.90;99.90
47961;DHT22;33721;48.852;9.936;2022-12-29T03:28:54;9.10;99.90
47961;DHT22;33721;48.852;9.936;2022-12-29T03:31:23;9.30;99.90
47961;DHT22;33721;48.852;9.936;2022-12-29T03:33:50;9.40;99.90
47961;DHT22;33721;48.852;9.936;2022-12-29T03:36:23;9.40;99.90
47961;DHT22;33721;48.852;9.936;2022-12-29T03:38:59;9.30;99.90
47961;DHT22;33721;48.852;9.936;2022-12-29T03:41:30;9.40;99.90
47961;DHT22;33721;48.852;9.936;2022-12-29T03:43:57;9.50;99.90
47961;DHT22;33721;48.852;9.936;2022-12-29T03:46:22;9.50;99.90
47961;DHT22;33721;48.852;9.936;2022-12-29T03:48:48;9.50;99.90
47961;DHT22;33721;48.852;9.936;2022-12-29T03:51:14;9.60;99.90
47961;DHT22;33721;48.852;9.936;2022-12-29T03:53:39;9.50;99.90
47961;DHT22;33721;48.852;9.936;2022-12-29T03:56:05;9.40;99.90
47961;DHT22;33721;48.852;9.936;2022-12-29T03:58:31;9.40;99.90
47961;DHT22;33721;48.852;9.936;2022-12-29T04:00:57;9.50;99.90
47961;DHT22;33721;48.852;9.936;2022-12-29T04:03:22;9.40;99.90
47961;DHT22;33721;48.852;9.936;2022-12-29T04:05:48;9.60;99.90
47961;DHT22;33721;48.852;9.936;2022-12-29T04:08:14;9.60;99.90
47961;DHT22;33721;48.852;9.936;2022-12-29T04:10:39;9.50;99.90
47961;DHT22;33721;48.852;9.936;2022-12-29T04:13:05;9.60;99.90
47961;DHT22;33721;48.852;9.936;2022-12-29T04:15:31;9.50;99.90
47961;DHT22;33721;48.852;9.936;2022-12-29T04:17:56;9.50;99.90
47961;DHT22;33721;48.852;9.936;2022-12-29T04:20:22;9.40;99.90
47961;DHT22;33721;48.852;9.936;2022-12-29T04:23:06;9.50;99.90
47961;DHT22;33721;48.852;9.936;2022-12-29T04:25:33;9.60;99.90
47961;DHT22;33721;48.852;9.936;2022-12-29T04:27:59;9.60;99.90
47961;DHT22;33721;48.852;9.936;2022-12-29T04:30:24;9.60;99.90
47961;DHT22;33721;48.852;9.936;2022-12-29T04:32:50;9.60;99.90
47961;DHT22;33721;48.852;9.936;2022-12-29T04:35:16;9.50;99.90
47961;DHT22;33721;48.852;9.936;2022-12-29T04:37:41;9.50;99.90
47961;DHT22;33721;48.852;9.936;2022-12-29T04:40:08;9.40;99.90
47961;DHT22;33721;48.852;9.936;2022-12-29T04:42:34;9.30;99.90
47961;DHT22;33721;48.852;9.936;2022-12-29T04:44:59;9.30;99.90
47961;DHT22;33721;48.852;9.936;2022-12-29T04:47:25;9.20;99.90
47961;DHT22;33721;48.852;9.936;2022-12-29T04:49:50;9.10;99.90
47961;DHT22;33721;48.852;9.936;2022-12-29T04:52:16;9.00;99.90
47961;DHT22;33721;48.852;9.936;2022-12-29T04:54:42;9.00;99.90
47961;DHT22;33721;48.852;9.936;2022-12-29T04:57:07;8.90;99.90
47961;DHT22;33721;48.852;9.936;2022-12-29T04:59:33;8.90;99.90
47961;DHT22;33721;48.852;9.936;2022-12-29T05:01:58;8.90;99.90
47961;DHT22;33721;48.852;9.936;2022-12-29T05:04:24;8.90;99.90
47961;DHT22;33721;48.852;9.936;2022-12-29T05:06:50;8.90;99.90
47961;DHT22;33721;48.852;9.936;2022-12-29T05:09:15;8.90;99.90
47961;DHT22;33721;48.852;9.936;2022-12-29T05:11:41;9.00;99.90
47961;DHT22;33721;48.852;9.936;2022-12-29T05:14:06;9.00;99.90
47961;DHT22;33721;48.852;9.936;2022-12-29T05:16:32;9.00;99.90
47961;DHT22;33721;48.852;9.936;2022-12-29T05:18:58;9.10;99.90
47961;DHT22;33721;48.852;9.936;2022-12-29T05:21:23;9.10;99.90
47961;DHT22;33721;48.852;9.936;2022-12-29T05:23:49;9.00;99.90
47961;DHT22;33721;48.852;9.936;2022-12-29T05:26:14;9.00;99.90
47961;DHT22;33721;48.852;9.936;2022-12-29T05:28:40;9.00;99.90
47961;DHT22;33721;48.852;9.936;2022-12-29T05:31:06;9.00;99.90
47961;DHT22;33721;48.852;9.936;2022-12-29T05:33:31;9.00;99.90
47961;DHT22;33721;48.852;9.936;2022-12-29T05:35:57;9.00;99.90
47961;DHT22;33721;48.852;9.936;2022-12-29T05:38:28;9.00;99.90
47961;DHT22;33721;48.852;9.936;2022-12-29T05:40:53;9.00;99.90
47961;DHT22;33721;48.852;9.936;2022-12-29T05:43:19;8.90;99.90
47961;DHT22;33721;48.852;9.936;2022-12-29T05:45:48;8.90;99.90
47961;DHT22;33721;48.852;9.936;2022-12-29T05:48:14;8.80;99.90
47961;DHT22;33721;48.852;9.936;2022-12-29T05:50:39;8.80;99.90
47961;DHT22;33721;48.852;9.936;2022-12-29T05:53:05;8.70;99.90
47961;DHT22;33721;48.852;9.936;2022-12-29T05:55:30;8.70;99.90
47961;DHT22;33721;48.852;9.936;2022-12-29T05:57:56;8.60;99.90
47961;DHT22;33721;48.852;9.936;2022-12-29T06:00:22;8.50;99.90
47961;DHT22;33721;48.852;9.936;2022-12-29T06:02:47;8.50;99.90
47961;DHT22;33721;48.852;9.936;2022-12-29T06:05:13;8.50;99.90
47961;DHT22;33721;48.852;9.936;2022-12-29T06:07:39;8.50;99.90
47961;DHT22;33721;48.852;9.936;2022-12-29T06:10:05;8.40;99.90
47961;DHT22;33721;48.852;9.936;2022-12-29T06:12:31;8.20;99.90
47961;DHT22;33721;48.852;9.936;2022-12-29T06:14:57;7.80;99.90
47961;DHT22;33721;48.852;9.936;2022-12-29T06:17:22;7.60;99.90
47961;DHT22;33721;48.852;9.936;2022-12-29T06:19:48;7.30;99.90
47961;DHT22;33721;48.852;9.936;2022-12-29T06:22:14;7.10;99.90
47961;DHT22;33721;48.852;9.936;2022-12-29T06:24:39;6.80;99.90
47961;DHT22;33721;48.852;9.936;2022-12-29T06:27:05;6.70;99.90
47961;DHT22;33721;48.852;9.936;2022-12-29T06:29:30;6.60;99.90
47961;DHT22;33721;48.852;9.936;2022-12-29T06:31:57;6.50;99.90
47961;DHT22;33721;48.852;9.936;2022-12-29T06:34:24;6.60;99.90
47961;DHT22;33721;48.852;9.936;2022-12-29T06:36:50;6.60;99.90
47961;DHT22;33721;48.852;9.936;2022-12-29T06:39:16;6.50;99.90
47961;DHT22;33721;48.852;9.936;2022-12-29T06:41:42;6.50;99.90
47961;DHT22;33721;48.852;9.936;2022-12-29T06:44:07;6.50;99.90
47961;DHT22;33721;48.852;9.936;2022-12-29T06:46:33;6.40;99.90
47961;DHT22;33721;48.852;9.936;2022-12-29T06:48:58;6.40;99.90
47961;DHT22;33721;48.852;9.936;2022-12-29T06:51:24;6.30;99.90
47961;DHT22;33721;48.852;9.936;2022-12-29T06:53:50;6.30;99.90
47961;DHT22;33721;48.852;9.936;2022-12-29T06:56:15;6.20;99.90
47961;DHT22;33721;48.852;9.936;2022-12-29T06:58:41;6.20;99.90
47961;DHT22;33721;48.852;9.936;2022-12-29T07:01:07;6.30;99.90
47961;DHT22;33721;48.852;9.936;2022-12-29T07:03:32;6.40;99.90
47961;DHT22;33721;48.852;9.936;2022-12-29T07:05:58;6.40;99.90
47961;DHT22;33721;48.852;9.936;2022-12-29T07:08:24;6.40;99.90
47961;DHT22;33721;48.852;9.936;2022-12-29T07:10:49;6.50;99.90
47961;DHT22;33721;48.852;9.936;2022-12-29T07:13:15;6.50;99.90
47961;DHT22;33721;48.852;9.936;2022-12-29T07:15:41;6.50;99.90
47961;DHT22;33721;48.852;9.936;2022-12-29T07:18:07;6.50;99.90
47961;DHT22;33721;48.852;9.936;2022-12-29T07:20:32;6.40;99.90
47961;DHT22;33721;48.852;9.936;2022-12-29T07:22:58;6.30;99.90
47961;DHT22;33721;48.852;9.936;2022-12-29T07:25:24;6.20;99.90
47961;DHT22;33721;48.852;9.936;2022-12-29T07:27:49;6.20;99.90
47961;DHT22;33721;48.852;9.936;2022-12-29T07:30:15;6.10;99.90
47961;DHT22;33721;48.852;9.936;2022-12-29T07:32:41;6.10;99.90
47961;DHT22;33721;48.852;9.936;2022-12-29T07:35:07;6.10;99.90
47961;DHT22;33721;48.852;9.936;2022-12-29T07:37:34;6.10;99.90
47961;DHT22;33721;48.852;9.936;2022-12-29T07:40:00;6.20;99.90
47961;DHT22;33721;48.852;9.936;2022-12-29T07:42:26;6.20;99.90
47961;DHT22;33721;48.852;9.936;2022-12-29T07:44:52;6.10;99.90
47961;DHT22;33721;48.852;9.936;2022-12-29T07:47:18;6.20;99.90
47961;DHT22;33721;48.852;9.936;2022-12-29T07:49:43;6.20;99.90
47961;DHT22;33721;48.852;9.936;2022-12-29T07:52:09;6.20;99.90
47961;DHT22;33721;48.852;9.936;2022-12-29T07:54:34;6.20;99.90
47961;DHT22;33721;48.852;9.936;2022-12-29T07:57:00;6.20;99.90
47961;DHT22;33721;48.852;9.936;2022-12-29T07:59:26;6.20;99.90
47961;DHT22;33721;48.852;9.936;2022-12-29T08:01:52;6.20;99.90
47961;DHT22;33721;48.852;9.936;2022-12-29T08:04:17;6.30;99.90
47961;DHT22;33721;48.852;9.936;2022-12-29T08:06:43;6.30;99.90
47961;DHT22;33721;48.852;9.936;2022-12-29T08:09:10;6.30;99.90
47961;DHT22;33721;48.852;9.936;2022-12-29T08:11:36;6.30;99.90
47961;DHT22;33721;48.852;9.936;2022-12-29T08:14:02;6.30;99.90
47961;DHT22;33721;48.852;9.936;2022-12-29T08:16:28;6.40;99.90
47961;DHT22;33721;48.852;9.936;2022-12-29T08:18:53;6.40;99.90
47961;DHT22;33721;48.852;9.936;2022-12-29T08:21:19;6.40;99.90
47961;DHT22;33721;48.852;9.936;2022-12-29T08:23:45;6.50;99.90
47961;DHT22;33721;48.852;9.936;2022-12-29T08:26:10;6.60;99.90
47961;DHT22;33721;48.852;9.936;2022-12-29T08:28:36;6.70;99.90
47961;DHT22;33721;48.852;9.936;2022-12-29T08:31:03;6.90;99.90
47961;DHT22;33721;48.852;9.936;2022-12-29T08:33:29;7.00;99.90
47961;DHT22;33721;48.852;9.936;2022-12-29T08:36:04;7.10;99.90
47961;DHT22;33721;48.852;9.936;2022-12-29T08:38:30;7.20;99.90
47961;DHT22;33721;48.852;9.936;2022-12-29T08:40:57;7.30;99.90
47961;DHT22;33721;48.852;9.936;2022-12-29T08:43:23;7.50;99.90
47961;DHT22;33721;48.852;9.936;2022-12-29T08:45:49;7.70;99.90
47961;DHT22;33721;48.852;9.936;2022-12-29T08:48:15;7.90;99.90
47961;DHT22;33721;48.852;9.936;2022-12-29T08:50:45;8.30;99.90
47961;DHT22;33721;48.852;9.936;2022-12-29T08:53:11;8.50;99.90
47961;DHT22;33721;48.852;9.936;2022-12-29T08:55:36;8.80;99.90
47961;DHT22;33721;48.852;9.936;2022-12-29T08:58:02;8.90;99.90
47961;DHT22;33721;48.852;9.936;2022-12-29T09:00:28;9.10;99.90
47961;DHT22;33721;48.852;9.936;2022-12-29T09:02:53;9.40;99.90
47961;DHT22;33721;48.852;9.936;2022-12-29T09:05:19;9.70;99.90
47961;DHT22;33721;48.852;9.936;2022-12-29T09:07:45;10.00;99.90
47961;DHT22;33721;48.852;9.936;2022-12-29T09:10:10;10.20;99.90
47961;DHT22;33721;48.852;9.936;2022-12-29T09:12:36;10.30;99.90
47961;DHT22;33721;48.852;9.936;2022-12-29T09:15:03;10.30;99.90
47961;DHT22;33721;48.852;9.936;2022-12-29T09:17:29;10.40;99.90
47961;DHT22;33721;48.852;9.936;2022-12-29T09:20:26;10.50;99.90
47961;DHT22;33721;48.852;9.936;2022-12-29T09:22:52;10.70;99.90
47961;DHT22;33721;48.852;9.936;2022-12-29T09:25:18;10.90;99.90
47961;DHT22;33721;48.852;9.936;2022-12-29T09:27:57;10.90;99.90
47961;DHT22;33721;48.852;9.936;2022-12-29T09:30:23;11.00;99.90
47961;DHT22;33721;48.852;9.936;2022-12-29T09:32:49;11.00;99.90
47961;DHT22;33721;48.852;9.936;2022-12-29T09:35:15;11.00;99.90
47961;DHT22;33721;48.852;9.936;2022-12-29T09:37:42;11.00;99.90
47961;DHT22;33721;48.852;9.936;2022-12-29T09:40:32;11.10;99.90
47961;DHT22;33721;48.852;9.936;2022-12-29T09:49:26;11.30;99.90
47961;DHT22;33721;48.852;9.936;2022-12-29T09:51:57;11.30;99.90
47961;DHT22;33721;48.852;9.936;2022-12-29T09:56:59;11.30;99.90
47961;DHT22;33721;48.852;9.936;2022-12-29T09:59:41;11.30;99.90
47961;DHT22;33721;48.852;9.936;2022-12-29T10:02:27;11.20;99.90
47961;DHT22;33721;48.852;9.936;2022-12-29T10:04:54;11.30;99.90
47961;DHT22;33721;48.852;9.936;2022-12-29T10:07:40;11.30;99.90
47961;DHT22;33721;48.852;9.936;2022-12-29T10:10:34;11.40;99.90
47961;DHT22;33721;48.852;9.936;2022-12-29T10:13:01;11.40;99.90
47961;DHT22;33721;48.852;9.936;2022-12-29T10:18:42;11.50;99.90
47961;DHT22;33721;48.852;9.936;2022-12-29T10:21:38;11.50;99.90
47961;DHT22;33721;48.852;9.936;2022-12-29T10:24:10;11.70;99.90
47961;DHT22;33721;48.852;9.936;2022-12-29T10:26:41;11.70;99.90
47961;DHT22;33721;48.852;9.936;2022-12-29T10:29:20;11.70;99.90
47961;DHT22;33721;48.852;9.936;2022-12-29T10:32:02;11.80;99.90
47961;DHT22;33721;48.852;9.936;2022-12-29T10:39:52;11.90;99.90
47961;DHT22;33721;48.852;9.936;2022-12-29T10:42:36;11.90;99.90
47961;DHT22;33721;48.852;9.936;2022-12-29T10:45:05;11.90;99.90
47961;DHT22;33721;48.852;9.936;2022-12-29T10:47:37;11.80;99.90
47961;DHT22;33721;48.852;9.936;2022-12-29T10:50:04;11.80;99.90
47961;DHT22;33721;48.852;9.936;2022-12-29T10:52:33;11.90;99.90
47961;DHT22;33721;48.852;9.936;2022-12-29T10:55:03;11.90;99.90
47961;DHT22;33721;48.852;9.936;2022-12-29T10:57:39;11.80;99.90
47961;DHT22;33721;48.852;9.936;2022-12-29T11:00:17;11.80;99.90
47961;DHT22;33721;48.852;9.936;2022-12-29T11:05:37;11.90;99.90
47961;DHT22;33721;48.852;9.936;2022-12-29T11:08:11;11.90;99.90
47961;DHT22;33721;48.852;9.936;2022-12-29T11:10:42;11.90;99.90
47961;DHT22;33721;48.852;9.936;2022-12-29T11:13:19;11.90;99.90
47961;DHT22;33721;48.852;9.936;2022-12-29T11:15:51;11.90;99.90
47961;DHT22;33721;48.852;9.936;2022-12-29T11:18:35;12.00;99.90
47961;DHT22;33721;48.852;9.936;2022-12-29T11:21:04;12.30;99.90
47961;DHT22;33721;48.852;9.936;2022-12-29T11:23:39;12.50;99.90
47961;DHT22;33721;48.852;9.936;2022-12-29T11:29:03;12.60;99.90
47961;DHT22;33721;48.852;9.936;2022-12-29T11:31:29;12.70;99.90
47961;DHT22;33721;48.852;9.936;2022-12-29T11:33:55;12.80;99.90
47961;DHT22;33721;48.852;9.936;2022-12-29T11:36:23;12.70;99.90
47961;DHT22;33721;48.852;9.936;2022-12-29T11:38:51;12.80;99.90
47961;DHT22;33721;48.852;9.936;2022-12-29T11:41:35;12.80;99.90
47961;DHT22;33721;48.852;9.936;2022-12-29T11:44:05;12.60;99.90
47961;DHT22;33721;48.852;9.936;2022-12-29T11:46:36;12.40;99.90
47961;DHT22;33721;48.852;9.936;2022-12-29T11:49:03;12.40;99.90
47961;DHT22;33721;48.852;9.936;2022-12-29T11:54:01;12.20;99.90
47961;DHT22;33721;48.852;9.936;2022-12-29T11:56:40;12.20;99.90
47961;DHT22;33721;48.852;9.936;2022-12-29T12:04:41;12.00;99.90
47961;DHT22;33721;48.852;9.936;2022-12-29T12:09:40;12.10;99.90
47961;DHT22;33721;48.852;9.936;2022-12-29T12:12:21;12.10;99.90
47961;DHT22;33721;48.852;9.936;2022-12-29T12:14:54;12.00;99.90
47961;DHT22;33721;48.852;9.936;2022-12-29T12:17:36;12.00;99.90
47961;DHT22;33721;48.852;9.936;2022-12-29T12:29:36;11.80;99.90
47961;DHT22;33721;48.852;9.936;2022-12-29T12:32:17;11.80;99.90
47961;DHT22;33721;48.852;9.936;2022-12-29T12:34:45;11.80;99.90
47961;DHT22;33721;48.852;9.936;2022-12-29T12:53:19;11.60;99.90
47961;DHT22;33721;48.852;9.936;2022-12-29T12:58:57;11.50;99.90
47961;DHT22;33721;48.852;9.936;2022-12-29T13:04:49;11.50;99.90
47961;DHT22;33721;48.852;9.936;2022-12-29T13:20:41;11.20;99.90
47961;DHT22;33721;48.852;9.936;2022-12-29T13:26:19;11.10;99.90
47961;DHT22;33721;48.852;9.936;2022-12-29T13:36:53;11.10;99.90
47961;DHT22;33721;48.852;9.936;2022-12-29T13:39:24;11.10;99.90
47961;DHT22;33721;48.852;9.936;2022-12-29T13:41:53;11.10;99.90
47961;DHT22;33721;48.852;9.936;2022-12-29T13:44:33;11.10;99.90
47961;DHT22;33721;48.852;9.936;2022-12-29T13:47:15;11.20;99.90
47961;DHT22;33721;48.852;9.936;2022-12-29T13:49:44;11.10;99.90
47961;DHT22;33721;48.852;9.936;2022-12-29T14:00:11;11.00;99.90
47961;DHT22;33721;48.852;9.936;2022-12-29T14:02:50;10.90;99.90
47961;DHT22;33721;48.852;9.936;2022-12-29T14:07:57;10.90;99.90
47961;DHT22;33721;48.852;9.936;2022-12-29T14:10:27;11.00;99.90
47961;DHT22;33721;48.852;9.936;2022-12-29T14:13:22;11.00;99.90
47961;DHT22;33721;48.852;9.936;2022-12-29T14:15:59;11.00;99.90
47961;DHT22;33721;48.852;9.936;2022-12-29T14:18:29;10.90;99.90
47961;DHT22;33721;48.852;9.936;2022-12-29T14:21:21;10.90;99.90
47961;DHT22;33721;48.852;9.936;2022-12-29T14:23:50;10.90;99.90
47961;DHT22;33721;48.852;9.936;2022-12-29T14:26:35;10.90;99.90
47961;DHT22;33721;48.852;9.936;2022-12-29T14:29:41;10.80;99.90
47961;DHT22;33721;48.852;9.936;2022-12-29T14:34:52;11.00;99.90
47961;DHT22;33721;48.852;9.936;2022-12-29T14:42:29;11.00;99.90
47961;DHT22;33721;48.852;9.936;2022-12-29T14:45:29;11.00;99.90
47961;DHT22;33721;48.852;9.936;2022-12-29T14:47:55;11.10;99.90
47961;DHT22;33721;48.852;9.936;2022-12-29T14:50:23;11.10;99.90
47961;DHT22;33721;48.852;9.936;2022-12-29T14:52:52;11.10;99.90
47961;DHT22;33721;48.852;9.936;2022-12-29T14:55:37;11.10;99.90
47961;DHT22;33721;48.852;9.936;2022-12-29T15:00:52;11.20;99.90
47961;DHT22;33721;48.852;9.936;2022-12-29T15:03:20;11.10;99.90
47961;DHT22;33721;48.852;9.936;2022-12-29T15:08:22;11.10;99.90
47961;DHT22;33721;48.852;9.936;2022-12-29T15:11:09;11.10;99.90
47961;DHT22;33721;48.852;9.936;2022-12-29T15:13:40;11.10;99.90
47961;DHT22;33721;48.852;9.936;2022-12-29T15:16:32;11.10;99.90
47961;DHT22;33721;48.852;9.936;2022-12-29T15:18:59;11.10;99.90
47961;DHT22;33721;48.852;9.936;2022-12-29T15:21:30;11.00;99.90
47961;DHT22;33721;48.852;9.936;2022-12-29T15:23:56;10.90;99.90
47961;DHT22;33721;48.852;9.936;2022-12-29T15:26:23;10.90;99.90
47961;DHT22;33721;48.852;9.936;2022-12-29T15:29:01;10.90;99.90
47961;DHT22;33721;48.852;9.936;2022-12-29T15:31:26;10.80;99.90
47961;DHT22;33721;48.852;9.936;2022-12-29T15:34:02;10.80;99.90
47961;DHT22;33721;48.852;9.936;2022-12-29T15:36:29;10.70;99.90
47961;DHT22;33721;48.852;9.936;2022-12-29T15:39:20;10.80;99.90
47961;DHT22;33721;48.852;9.936;2022-12-29T15:41:56;10.70;99.90
47961;DHT22;33721;48.852;9.936;2022-12-29T15:44:45;10.70;99.90
47961;DHT22;33721;48.852;9.936;2022-12-29T15:47:25;10.70;99.90
47961;DHT22;33721;48.852;9.936;2022-12-29T15:52:29;10.60;99.90
47961;DHT22;33721;48.852;9.936;2022-12-29T15:54:58;10.60;99.90
47961;DHT22;33721;48.852;9.936;2022-12-29T15:57:30;10.60;99.90
47961;DHT22;33721;48.852;9.936;2022-12-29T16:00:01;10.60;99.90
47961;DHT22;33721;48.852;9.936;2022-12-29T16:02:27;10.70;99.90
47961;DHT22;33721;48.852;9.936;2022-12-29T16:04:54;10.60;99.90
47961;DHT22;33721;48.852;9.936;2022-12-29T16:07:29;10.70;99.90
47961;DHT22;33721;48.852;9.936;2022-12-29T16:09:57;10.70;99.90
47961;DHT22;33721;48.852;9.936;2022-12-29T16:12:36;10.70;99.90
47961;DHT22;33721;48.852;9.936;2022-12-29T16:15:05;10.60;99.90
47961;DHT22;33721;48.852;9.936;2022-12-29T16:17:48;10.70;99.90
47961;DHT22;33721;48.852;9.936;2022-12-29T16:20:21;10.70;99.90
47961;DHT22;33721;48.852;9.936;2022-12-29T16:22:56;10.60;99.90
47961;DHT22;33721;48.852;9.936;2022-12-29T16:25:25;10.60;99.90
47961;DHT22;33721;48.852;9.936;2022-12-29T16:27:53;10.70;99.90
47961;DHT22;33721;48.852;9.936;2022-12-29T16:30:27;10.60;99.90
47961;DHT22;33721;48.852;9.936;2022-12-29T16:32:58;10.60;99.90
47961;DHT22;33721;48.852;9.936;2022-12-29T16:35:49;10.60;99.90
47961;DHT22;33721;48.852;9.936;2022-12-29T16:38:20;10.70;99.90
47961;DHT22;33721;48.852;9.936;2022-12-29T16:41:02;10.70;99.90
47961;DHT22;33721;48.852;9.936;2022-12-29T16:43:30;10.70;99.90
47961;DHT22;33721;48.852;9.936;2022-12-29T16:48:36;10.30;99.90
47961;DHT22;33721;48.852;9.936;2022-12-29T16:51:21;9.90;99.90
47961;DHT22;33721;48.852;9.936;2022-12-29T16:53:51;9.50;99.90
47961;DHT22;33721;48.852;9.936;2022-12-29T16:56:20;9.30;99.90
47961;DHT22;33721;48.852;9.936;2022-12-29T16:58:49;9.30;99.90
47961;DHT22;33721;48.852;9.936;2022-12-29T17:01:16;9.10;99.90
47961;DHT22;33721;48.852;9.936;2022-12-29T17:03:53;9.00;99.90
47961;DHT22;33721;48.852;9.936;2022-12-29T17:06:21;8.90;99.90
47961;DHT22;33721;48.852;9.936;2022-12-29T17:08:48;8.90;99.90
47961;DHT22;33721;48.852;9.936;2022-12-29T17:11:30;8.90;99.90
47961;DHT22;33721;48.852;9.936;2022-12-29T17:14:28;8.80;99.90
47961;DHT22;33721;48.852;9.936;2022-12-29T17:16:55;8.80;99.90
47961;DHT22;33721;48.852;9.936;2022-12-29T17:19:28;8.90;99.90
47961;DHT22;33721;48.852;9.936;2022-12-29T17:21:55;8.80;99.90
47961;DHT22;33721;48.852;9.936;2022-12-29T17:24:21;8.80;99.90
47961;DHT22;33721;48.852;9.936;2022-12-29T17:26:53;8.80;99.90
47961;DHT22;33721;48.852;9.936;2022-12-29T17:29:41;8.80;99.90
47961;DHT22;33721;48.852;9.936;2022-12-29T17:32:12;8.80;99.90
47961;DHT22;33721;48.852;9.936;2022-12-29T17:34:41;8.70;99.90
47961;DHT22;33721;48.852;9.936;2022-12-29T17:37:32;8.70;99.90
47961;DHT22;33721;48.852;9.936;2022-12-29T17:39:58;8.70;99.90
47961;DHT22;33721;48.852;9.936;2022-12-29T17:42:23;8.70;99.90
47961;DHT22;33721;48.852;9.936;2022-12-29T17:44:49;8.70;99.90
47961;DHT22;33721;48.852;9.936;2022-12-29T17:47:15;8.70;99.90
47961;DHT22;33721;48.852;9.936;2022-12-29T17:49:41;8.70;99.90
47961;DHT22;33721;48.852;9.936;2022-12-29T17:52:11;8.70;99.90
47961;DHT22;33721;48.852;9.936;2022-12-29T17:54:41;8.70;99.90
47961;DHT22;33721;48.852;9.936;2022-12-29T17:57:11;8.70;99.90
47961;DHT22;33721;48.852;9.936;2022-12-29T17:59:37;8.70;99.90
47961;DHT22;33721;48.852;9.936;2022-12-29T18:04:48;8.70;99.90
47961;DHT22;33721;48.852;9.936;2022-12-29T18:07:14;8.60;99.90
47961;DHT22;33721;48.852;9.936;2022-12-29T18:09:40;8.60;99.90
47961;DHT22;33721;48.852;9.936;2022-12-29T18:15:04;8.50;99.90
47961;DHT22;33721;48.852;9.936;2022-12-29T18:17:30;8.60;99.90
47961;DHT22;33721;48.852;9.936;2022-12-29T18:19:58;8.60;99.90
47961;DHT22;33721;48.852;9.936;2022-12-29T18:22:25;8.60;99.90
47961;DHT22;33721;48.852;9.936;2022-12-29T18:24:53;8.60;99.90
47961;DHT22;33721;48.852;9.936;2022-12-29T18:27:19;8.60;99.90
47961;DHT22;33721;48.852;9.936;2022-12-29T18:29:46;8.60;99.90
47961;DHT22;33721;48.852;9.936;2022-12-29T18:32:13;8.60;99.90
47961;DHT22;33721;48.852;9.936;2022-12-29T18:34:42;8.60;99.90
47961;DHT22;33721;48.852;9.936;2022-12-29T18:37:08;8.60;99.90
47961;DHT22;33721;48.852;9.936;2022-12-29T18:39:34;8.60;99.90
47961;DHT22;33721;48.852;9.936;2022-12-29T18:42:02;8.70;99.90
47961;DHT22;33721;48.852;9.936;2022-12-29T18:44:28;8.70;99.90